createdAt,value
2022-12-28T00:04:51.451Z,99497.2
2022-12-28T00:12:03.826Z,99505.3
2022-12-28T00:17:39.962Z,99500.3
2022-12-28T00:23:15.208Z,99494.3
2022-12-28T00:28:51.395Z,99492.4
2022-12-28T00:34:39.637Z,99496.7
2022-12-28T00:40:25.068Z,99495.6
2022-12-28T00:46:29.474Z,99492.4
2022-12-28T00:52:05.972Z,99490.6
2022-12-28T00:57:44.335Z,99487.2
2022-12-28T01:03:22.568Z,99483.8
2022-12-28T01:08:58.002Z,99472.8
2022-12-28T01:14:33.190Z,99460.2
2022-12-28T01:20:35.968Z,99452.1
2022-12-28T01:26:15.806Z,99443.2
2022-12-28T01:31:51.657Z,99432.7
2022-12-28T01:37:40.495Z,99423.5
2022-12-28T01:43:31.321Z,99410.7
2022-12-28T01:49:28.433Z,99406.1
2022-12-28T01:55:01.892Z,99405
2022-12-28T02:00:38.215Z,99397.5
2022-12-28T02:06:23.545Z,99386.3
2022-12-28T02:11:58.992Z,99379.6
2022-12-28T02:17:34.293Z,99378.7
2022-12-28T02:23:21.869Z,99377.6
2022-12-28T02:29:14.582Z,99370.8
2022-12-28T02:34:58.733Z,99368.1
2022-12-28T02:40:49.369Z,99364
2022-12-28T02:46:46.620Z,99353.9
2022-12-28T02:52:19.743Z,99341.2
2022-12-28T02:58:00.660Z,99334.8
2022-12-28T03:03:38.563Z,99331.4
2022-12-28T03:09:16.198Z,99323.6
2022-12-28T03:15:12.397Z,99323.1
2022-12-28T03:20:47.636Z,99311.3
2022-12-28T03:26:23.903Z,99302.2
2022-12-28T03:32:03.384Z,99298.5
2022-12-28T03:37:38.704Z,99295
2022-12-28T03:43:21.880Z,99290.3
2022-12-28T03:49:39.541Z,99291.3
2022-12-28T03:55:14.617Z,99286.4
2022-12-28T04:01:12.491Z,99283.2
2022-12-28T04:07:17.064Z,99273.9
2022-12-28T04:13:17.377Z,99264.9
2022-12-28T04:18:54.958Z,99259.8
2022-12-28T04:24:30.109Z,99257.4
2022-12-28T04:30:06.738Z,99257.6
2022-12-28T04:35:44.161Z,99252.6
2022-12-28T04:42:01.442Z,99252.9
2022-12-28T04:48:00.858Z,99258
2022-12-28T04:53:34.616Z,99254.1
2022-12-28T04:59:09.654Z,99256
2022-12-28T05:04:53.650Z,99253.4
2022-12-28T05:10:28.591Z,99242.5
2022-12-28T05:16:13.287Z,99237.9
2022-12-28T05:22:05.100Z,99232.4
2022-12-28T05:27:43.005Z,99231.7
2022-12-28T05:33:18.921Z,99224.1
2022-12-28T05:38:54.176Z,99226.5
2022-12-28T05:44:30.163Z,99225.9
2022-12-28T05:50:05.633Z,99224.2
2022-12-28T05:55:42.259Z,99218
2022-12-28T06:01:18.497Z,99213.9
2022-12-28T06:06:54.087Z,99208.8
2022-12-28T06:12:33.730Z,99206.5
2022-12-28T06:18:19.947Z,99200.1
2022-12-28T06:23:55.042Z,99199.3
2022-12-28T06:29:29.964Z,99189.7
2022-12-28T06:35:16.644Z,99188.8
2022-12-28T06:41:30.224Z,99172.6
2022-12-28T06:47:27.829Z,99164
2022-12-28T06:53:00.742Z,99156.8
2022-12-28T06:58:35.828Z,99144.3
2022-12-28T07:04:10.929Z,99138.6
2022-12-28T07:09:47.622Z,99140.9
2022-12-28T07:15:22.947Z,99130.8
2022-12-28T07:20:58.097Z,99125.3
2022-12-28T07:27:03.909Z,99110
2022-12-28T07:33:05.601Z,99113.8
2022-12-28T07:38:40.533Z,99112.6
2022-12-28T07:44:15.656Z,99114.5
2022-12-28T07:50:03.966Z,99110.7
2022-12-28T07:55:58.633Z,99111.6
2022-12-28T08:01:54.748Z,99098.9
2022-12-28T08:07:37.975Z,99099
2022-12-28T08:13:30.913Z,99090.7
2022-12-28T08:19:07.480Z,99094.1
2022-12-28T08:24:52.327Z,99090.5
2022-12-28T08:30:30.970Z,99091.8
2022-12-28T08:36:19.057Z,99092.8
2022-12-28T08:42:10.434Z,99084.4
2022-12-28T08:48:52.551Z,99084.1
2022-12-28T08:54:25.232Z,99084.4
2022-12-28T09:00:02.129Z,99077.8
2022-12-28T09:05:40.509Z,99078.6
2022-12-28T09:12:01.045Z,99078.5
2022-12-28T09:17:58.057Z,99076.6
2022-12-28T09:23:40.263Z,99074.6
2022-12-28T09:29:43.872Z,99080
2022-12-28T09:35:25.826Z,99069.5
2022-12-28T09:41:10.661Z,99073.9
2022-12-28T09:46:49.645Z,99067
2022-12-28T09:52:25.755Z,99068.7
2022-12-28T09:58:01.504Z,99074.6
2022-12-28T10:03:37.287Z,99066.1
2022-12-28T10:09:12.767Z,99063.8
2022-12-28T10:14:48.049Z,99069.8
2022-12-28T10:20:27.047Z,99062
2022-12-28T10:26:10.823Z,99051.2
2022-12-28T10:31:46.184Z,99049.9
2022-12-28T10:37:22.077Z,99045.9
2022-12-28T10:42:57.463Z,99036.9
2022-12-28T10:48:32.987Z,99026.2
2022-12-28T10:54:08.163Z,99021.7
2022-12-28T11:00:06.695Z,99009.2
2022-12-28T11:05:42.133Z,99003.9
2022-12-28T11:11:20.566Z,98995.9
2022-12-28T11:16:57.689Z,98989.3
2022-12-28T11:22:35.992Z,98985.6
2022-12-28T11:28:15.773Z,98976.4
2022-12-28T11:33:59.925Z,98974.2
2022-12-28T11:39:36.130Z,98968.5
2022-12-28T11:45:20.212Z,98960.8
2022-12-28T11:50:59.640Z,98957.5
2022-12-28T11:56:36.471Z,98954.4
2022-12-28T12:02:12.159Z,98948.3
2022-12-28T12:07:52.787Z,98940.1
2022-12-28T12:13:28.607Z,98937.7
2022-12-28T12:19:03.799Z,98923.1
2022-12-28T12:24:41.086Z,98907
2022-12-28T12:30:16.953Z,98904.1
2022-12-28T12:35:57.441Z,98890.6
2022-12-28T12:41:32.736Z,98873.6
2022-12-28T12:47:32.755Z,98861.7
2022-12-28T12:53:06.857Z,98858.5
2022-12-28T12:58:42.521Z,98852.3
2022-12-28T13:04:17.811Z,98840.7
2022-12-28T13:09:53.838Z,98845.3
2022-12-28T13:15:38.442Z,98832.7
2022-12-28T13:21:15.298Z,98825.9
2022-12-28T13:26:54.023Z,98808
2022-12-28T13:32:38.951Z,98795.8
2022-12-28T13:38:14.202Z,98791.2
2022-12-28T13:43:49.654Z,98786.4
2022-12-28T13:49:48.081Z,98777.3
2022-12-28T13:55:22.307Z,98775.6
2022-12-28T14:00:57.797Z,98763.6
2022-12-28T14:06:36.334Z,98754.5
2022-12-28T14:12:12.307Z,98739.1
2022-12-28T14:17:54.862Z,98731.8
2022-12-28T14:23:50.741Z,98719.2
2022-12-28T14:29:39.997Z,98717.7
2022-12-28T14:35:23.923Z,98715.4
2022-12-28T14:41:01.978Z,98713.8
2022-12-28T14:47:00.735Z,98726
2022-12-28T14:52:34.793Z,98720.2
2022-12-28T14:58:10.190Z,98716.6
2022-12-28T15:03:45.853Z,98721.5
2022-12-28T15:09:22.407Z,98712.3
2022-12-28T15:14:58.012Z,98709.9
2022-12-28T15:20:33.780Z,98716.4
2022-12-28T15:26:14.168Z,98717.2
2022-12-28T15:32:03.978Z,98720.3
2022-12-28T15:37:49.395Z,98726.7
2022-12-28T15:43:24.952Z,98724
2022-12-28T15:49:42.621Z,98736.9
2022-12-28T15:55:18.355Z,98734.7
2022-12-28T16:00:59.483Z,98733.5
2022-12-28T16:06:45.905Z,98731.9
2022-12-28T16:12:21.958Z,98742.6
2022-12-28T16:18:05.936Z,98741.5
2022-12-28T16:24:13.487Z,98751.5
2022-12-28T16:30:02.641Z,98750.2
2022-12-28T16:35:45.233Z,98757.3
2022-12-28T16:41:20.104Z,98756.5
2022-12-28T16:46:55.439Z,98760.9
2022-12-28T16:52:30.760Z,98755.5
2022-12-28T16:58:06.694Z,98766.8
2022-12-28T17:03:43.010Z,98763.7
2022-12-28T17:09:19.008Z,98770.4
2022-12-28T17:15:06.082Z,98781
2022-12-28T17:21:07.718Z,98785
2022-12-28T17:26:47.698Z,98790.1
2022-12-28T17:32:27.539Z,98791.3
2022-12-28T17:38:07.342Z,98791.5
2022-12-28T17:43:42.565Z,98791.6
2022-12-28T17:49:17.734Z,98783.5
2022-12-28T17:55:02.898Z,98786.7
2022-12-28T18:00:38.316Z,98790.5
2022-12-28T18:06:23.716Z,98805.5
2022-12-28T18:11:58.886Z,98807.8
2022-12-28T18:17:36.823Z,98809.5
2022-12-28T18:23:42.575Z,98807.5
2022-12-28T18:30:15.845Z,98816.2
2022-12-28T18:35:50.591Z,98820.2
2022-12-28T18:41:34.857Z,98828.8
2022-12-28T18:47:20.749Z,98829.4
2022-12-28T18:52:55.465Z,98821.7
2022-12-28T18:58:39.895Z,98831.1
2022-12-28T19:04:16.990Z,98832.4
2022-12-28T19:09:58.632Z,98824
2022-12-28T19:15:50.101Z,98832.9
2022-12-28T19:21:27.269Z,98827.4
2022-12-28T19:27:02.606Z,98830.1
2022-12-28T19:32:41.693Z,98830.2
2022-12-28T19:38:21.190Z,98827.7
2022-12-28T19:44:15.661Z,98825.7
2022-12-28T19:50:29.774Z,98829
2022-12-28T19:56:08.491Z,98828.9
2022-12-28T20:01:44.603Z,98819.1
2022-12-28T20:07:21.319Z,98829.9
2022-12-28T20:12:56.307Z,98829.3
2022-12-28T20:18:32.378Z,98805.9
2022-12-28T20:24:23.343Z,98810
2022-12-28T20:30:10.249Z,98815.9
2022-12-28T20:35:47.823Z,98823.4
2022-12-28T20:41:26.433Z,98800.7
2022-12-28T20:47:11.184Z,98802
2022-12-28T20:52:47.077Z,98798.8
2022-12-28T20:58:46.030Z,98795.5
2022-12-28T21:05:19.573Z,98787.5
2022-12-28T21:10:57.426Z,98783.6
2022-12-28T21:16:45.432Z,98778.7
2022-12-28T21:22:43.784Z,98777.5
2022-12-28T21:29:03.976Z,98775.4
2022-12-28T21:34:39.925Z,98772.4
2022-12-28T21:40:15.388Z,98772.2
2022-12-28T21:46:01.602Z,98771.6
2022-12-28T21:52:00.269Z,98773.5
2022-12-28T21:58:00.329Z,98788.7
2022-12-28T22:03:38.777Z,98787.5
2022-12-28T22:09:35.401Z,98782.7
2022-12-28T22:15:10.445Z,98779.3
2022-12-28T22:21:15.978Z,98786.7
2022-12-28T22:27:03.265Z,98787
2022-12-28T22:32:43.604Z,98787.1
2022-12-28T22:38:18.623Z,98778
2022-12-28T22:43:59.642Z,98768.7
2022-12-28T22:49:56.980Z,98771.3
2022-12-28T22:55:29.717Z,98756.7
2022-12-28T23:01:11.628Z,98748.9
2022-12-28T23:07:05.074Z,98747.9
2022-12-28T23:12:49.478Z,98748.9
2022-12-28T23:18:25.844Z,98743
2022-12-28T23:24:01.358Z,98736.2
2022-12-28T23:29:42.615Z,98732.1
2022-12-28T23:35:39.620Z,98732.7
2022-12-28T23:41:57.001Z,98729
2022-12-28T23:47:56.861Z,98721.6
2022-12-28T23:53:30.682Z,98716.9
2022-12-28T23:59:11.170Z,98708.6
